createdAt,value
2023-02-28T00:01:25.319Z,99262.50
2023-02-28T00:03:52.142Z,99263.31
2023-02-28T00:06:18.865Z,99268.94
2023-02-28T00:08:45.654Z,99263.91
2023-02-28T00:11:14.544Z,99263.88
2023-02-28T00:13:44.762Z,99267.16
2023-02-28T00:16:15.774Z,99268.13
2023-02-28T00:18:42.740Z,99261.28
2023-02-28T00:21:09.693Z,99269.84
2023-02-28T00:23:37.105Z,99264.56
2023-02-28T00:26:04.037Z,99264.31
2023-02-28T00:28:30.836Z,99265.19
2023-02-28T00:31:00.992Z,99270.03
2023-02-28T00:33:28.876Z,99262.19
2023-02-28T00:36:07.441Z,99269.28
2023-02-28T00:38:36.369Z,99264.97
2023-02-28T00:41:05.520Z,99264.13
2023-02-28T00:43:34.828Z,99267.56
2023-02-28T00:46:02.216Z,99268.28
2023-02-28T00:48:31.258Z,99269.75
2023-02-28T00:50:57.934Z,99267.97
2023-02-28T00:53:25.707Z,99271.41
2023-02-28T00:55:52.506Z,99269.59
2023-02-28T00:58:19.311Z,99270.34
2023-02-28T01:00:49.791Z,99272.19
2023-02-28T01:03:20.835Z,99273.97
2023-02-28T01:05:47.974Z,99273.97
2023-02-28T01:08:16.019Z,99273.75
2023-02-28T01:10:43.224Z,99275.59
2023-02-28T01:13:10.057Z,99273.03
2023-02-28T01:15:38.006Z,99273.00
2023-02-28T01:18:05.388Z,99278.22
2023-02-28T01:20:32.088Z,99277.22
2023-02-28T01:22:58.845Z,99273.81
2023-02-28T01:25:25.512Z,99278.78
2023-02-28T01:27:53.125Z,99273.56
2023-02-28T01:30:19.923Z,99275.94
2023-02-28T01:32:47.563Z,99277.63
2023-02-28T01:35:14.302Z,99274.84
2023-02-28T01:37:40.940Z,99273.31
2023-02-28T01:40:08.283Z,99273.16
2023-02-28T01:42:35.059Z,99269.47
2023-02-28T01:45:19.360Z,99275.44
2023-02-28T01:47:51.070Z,99278.03
2023-02-28T01:50:27.515Z,99276.31
2023-02-28T01:52:58.126Z,99276.38
2023-02-28T01:55:29.500Z,99270.28
2023-02-28T01:58:01.222Z,99270.94
2023-02-28T02:00:29.642Z,99270.00
2023-02-28T02:03:00.613Z,99271.63
2023-02-28T02:05:32.012Z,99275.03
2023-02-28T02:08:04.219Z,99269.75
2023-02-28T02:10:36.171Z,99266.47
2023-02-28T02:13:14.940Z,99259.38
2023-02-28T02:16:01.341Z,99259.38
2023-02-28T02:18:59.374Z,99265.22
2023-02-28T02:21:38.330Z,99258.25
2023-02-28T02:24:23.681Z,99253.53
2023-02-28T02:27:24.411Z,99254.44
2023-02-28T02:30:00.280Z,99253.53
2023-02-28T02:32:48.303Z,99251.59
2023-02-28T02:35:18.601Z,99247.47
2023-02-28T02:37:51.407Z,99256.16
2023-02-28T02:40:21.936Z,99255.00
2023-02-28T02:43:11.711Z,99252.47
2023-02-28T02:45:47.529Z,99251.47
2023-02-28T02:48:18.834Z,99254.72
2023-02-28T02:51:12.698Z,99257.31
2023-02-28T02:54:11.124Z,99249.34
2023-02-28T02:56:42.491Z,99253.56
2023-02-28T02:59:13.954Z,99254.63
2023-02-28T03:01:42.545Z,99256.25
2023-02-28T03:04:17.851Z,99253.91
2023-02-28T03:06:44.517Z,99253.91
2023-02-28T03:09:11.246Z,99248.63
2023-02-28T03:11:42.342Z,99251.16
2023-02-28T03:14:20.318Z,99253.09
2023-02-28T03:17:01.234Z,99252.91
2023-02-28T03:20:05.549Z,99248.63
2023-02-28T03:22:59.472Z,99252.81
2023-02-28T03:25:38.328Z,99246.41
2023-02-28T03:28:28.344Z,99248.19
2023-02-28T03:31:31.278Z,99250.59
2023-02-28T03:34:11.322Z,99247.09
2023-02-28T03:36:46.683Z,99236.63
2023-02-28T03:39:24.040Z,99240.81
2023-02-28T03:41:54.976Z,99239.03
2023-02-28T03:44:31.523Z,99249.31
2023-02-28T03:47:25.902Z,99246.00
2023-02-28T03:50:08.721Z,99235.22
2023-02-28T03:52:48.435Z,99245.66
2023-02-28T03:55:17.622Z,99251.81
2023-02-28T03:58:08.986Z,99242.13
2023-02-28T04:00:41.325Z,99242.06
2023-02-28T04:03:08.024Z,99235.88
2023-02-28T04:05:48.338Z,99242.84
2023-02-28T04:08:14.956Z,99243.75
2023-02-28T04:10:44.457Z,99239.44
2023-02-28T04:13:11.115Z,99235.16
2023-02-28T04:15:37.816Z,99241.25
2023-02-28T04:18:04.494Z,99242.03
2023-02-28T04:20:31.169Z,99238.38
2023-02-28T04:22:57.873Z,99242.13
2023-02-28T04:25:24.550Z,99240.09
2023-02-28T04:27:51.209Z,99241.06
2023-02-28T04:30:17.920Z,99234.97
2023-02-28T04:32:44.683Z,99235.06
2023-02-28T04:35:12.405Z,99241.78
2023-02-28T04:37:39.170Z,99234.09
2023-02-28T04:40:06.444Z,99238.47
2023-02-28T04:42:36.434Z,99234.69
2023-02-28T04:45:04.403Z,99230.59
2023-02-28T04:47:31.527Z,99242.28
2023-02-28T04:49:58.316Z,99236.38
2023-02-28T04:52:25.071Z,99240.50
2023-02-28T04:54:51.694Z,99241.38
2023-02-28T04:57:18.406Z,99238.09
2023-02-28T04:59:45.225Z,99241.56
2023-02-28T05:02:12.014Z,99240.69
2023-02-28T05:04:38.774Z,99241.56
2023-02-28T05:07:05.529Z,99243.50
2023-02-28T05:09:33.868Z,99241.66
2023-02-28T05:12:00.596Z,99246.88
2023-02-28T05:14:27.409Z,99237.47
2023-02-28T05:16:54.035Z,99244.09
2023-02-28T05:19:22.223Z,99243.34
2023-02-28T05:21:54.106Z,99238.16
2023-02-28T05:24:23.664Z,99238.16
2023-02-28T05:26:52.958Z,99246.09
2023-02-28T05:29:20.150Z,99249.53
2023-02-28T05:31:47.598Z,99256.38
2023-02-28T05:34:16.536Z,99255.66
2023-02-28T05:36:43.787Z,99259.13
2023-02-28T05:39:13.938Z,99259.03
2023-02-28T05:41:43.121Z,99256.25
2023-02-28T05:44:11.102Z,99259.84
2023-02-28T05:46:38.067Z,99260.75
2023-02-28T05:49:05.243Z,99253.75
2023-02-28T05:51:32.380Z,99258.97
2023-02-28T05:54:02.949Z,99260.66
2023-02-28T05:56:30.058Z,99259.69
2023-02-28T05:58:56.812Z,99264.25
2023-02-28T06:01:40.265Z,99265.75
2023-02-28T06:04:14.331Z,99268.31
2023-02-28T06:06:47.215Z,99267.34
2023-02-28T06:09:14.573Z,99264.47
2023-02-28T06:11:41.643Z,99266.31
2023-02-28T06:14:08.772Z,99262.84
2023-02-28T06:16:36.677Z,99267.22
2023-02-28T06:19:04.893Z,99275.22
2023-02-28T06:21:32.781Z,99270.13
2023-02-28T06:23:59.828Z,99277.91
2023-02-28T06:26:26.675Z,99283.22
2023-02-28T06:28:53.478Z,99276.13
2023-02-28T06:31:20.334Z,99280.22
2023-02-28T06:33:47.692Z,99287.22
2023-02-28T06:36:17.556Z,99284.91
2023-02-28T06:38:44.862Z,99289.06
2023-02-28T06:41:12.060Z,99287.41
2023-02-28T06:43:41.980Z,99283.00
2023-02-28T06:46:12.159Z,99284.38
2023-02-28T06:48:44.539Z,99280.63
2023-02-28T06:51:14.955Z,99290.75
2023-02-28T06:53:42.232Z,99292.78
2023-02-28T06:56:11.868Z,99294.63
2023-02-28T06:58:40.158Z,99293.88
2023-02-28T07:01:08.418Z,99304.50
2023-02-28T07:03:36.822Z,99292.78
2023-02-28T07:06:04.959Z,99299.34
2023-02-28T07:08:32.619Z,99297.34
2023-02-28T07:10:59.735Z,99299.44
2023-02-28T07:13:26.621Z,99289.63
2023-02-28T07:15:58.557Z,99296.19
2023-02-28T07:18:26.175Z,99287.34
2023-02-28T07:20:56.081Z,99299.28
2023-02-28T07:23:23.482Z,99296.28
2023-02-28T07:25:51.599Z,99297.50
2023-02-28T07:28:18.418Z,99281.00
2023-02-28T07:30:45.051Z,99276.91
2023-02-28T07:33:11.866Z,99266.09
2023-02-28T07:35:38.620Z,99251.47
2023-02-28T07:38:05.333Z,99252.28
2023-02-28T07:40:32.227Z,99242.75
2023-02-28T07:43:00.350Z,99245.91
2023-02-28T07:45:29.650Z,99239.25
2023-02-28T07:47:56.714Z,99235.03
2023-02-28T07:50:25.145Z,99234.94
2023-02-28T07:52:53.469Z,99234.94
2023-02-28T07:55:20.157Z,99242.06
2023-02-28T07:57:46.882Z,99221.66
2023-02-28T08:00:14.632Z,99225.13
2023-02-28T08:02:41.574Z,99232.28
2023-02-28T08:05:09.416Z,99227.81
2023-02-28T08:07:36.194Z,99218.91
2023-02-28T08:10:03.313Z,99225.94
2023-02-28T08:12:30.032Z,99227.69
2023-02-28T08:14:56.672Z,99218.47
2023-02-28T08:17:23.872Z,99217.34
2023-02-28T08:19:50.528Z,99212.69
2023-02-28T08:22:17.221Z,99213.78
2023-02-28T08:24:44.693Z,99206.97
2023-02-28T08:27:11.339Z,99204.88
2023-02-28T08:29:39.167Z,99201.72
2023-02-28T08:32:14.513Z,99197.00
2023-02-28T08:34:48.186Z,99190.78
2023-02-28T08:37:15.107Z,99193.66
2023-02-28T08:39:41.811Z,99189.19
2023-02-28T08:42:08.490Z,99192.59
2023-02-28T08:44:35.271Z,99189.75
2023-02-28T08:47:01.980Z,99193.34
2023-02-28T08:49:29.562Z,99187.91
2023-02-28T08:51:58.103Z,99187.09
2023-02-28T08:54:25.816Z,99189.78
2023-02-28T08:56:52.640Z,99195.75
2023-02-28T08:59:19.386Z,99199.13
2023-02-28T09:01:46.241Z,99196.53
2023-02-28T09:04:14.565Z,99202.47
2023-02-28T09:06:45.412Z,99197.59
2023-02-28T09:09:12.111Z,99223.03
2023-02-28T09:11:39.005Z,99227.13
2023-02-28T09:14:05.723Z,99231.44
2023-02-28T09:16:34.434Z,99232.13
2023-02-28T09:19:01.778Z,99230.31
2023-02-28T09:21:29.394Z,99230.34
2023-02-28T09:23:56.371Z,99239.22
2023-02-28T09:26:25.578Z,99238.28
2023-02-28T09:28:53.738Z,99233.00
2023-02-28T09:31:24.535Z,99236.69
2023-02-28T09:33:52.869Z,99231.47
2023-02-28T09:36:20.958Z,99233.09
2023-02-28T09:38:48.906Z,99239.09
2023-02-28T09:41:19.428Z,99234.84
2023-02-28T09:43:59.000Z,99237.31
2023-02-28T09:46:34.736Z,99231.91
2023-02-28T09:49:07.246Z,99225.97
2023-02-28T09:52:01.926Z,99235.81
2023-02-28T09:54:31.944Z,99234.97
2023-02-28T09:57:04.499Z,99230.53
2023-02-28T09:59:59.641Z,99233.91
2023-02-28T10:02:49.054Z,99236.38
2023-02-28T10:05:19.617Z,99235.31
2023-02-28T10:08:00.016Z,99237.00
2023-02-28T10:10:33.788Z,99238.06
2023-02-28T10:13:03.749Z,99236.38
2023-02-28T10:15:32.779Z,99241.44
2023-02-28T10:18:09.141Z,99246.84
2023-02-28T10:20:39.810Z,99232.88
2023-02-28T10:23:26.810Z,99252.88
2023-02-28T10:26:12.408Z,99239.31
2023-02-28T10:28:39.153Z,99227.78
2023-02-28T10:31:05.996Z,99219.66
2023-02-28T10:33:36.553Z,99204.72
2023-02-28T10:36:04.736Z,99209.72
2023-02-28T10:38:36.723Z,99201.03
2023-02-28T10:41:15.998Z,99200.25
2023-02-28T10:43:46.150Z,99192.38
2023-02-28T10:46:26.683Z,99186.47
2023-02-28T10:49:07.022Z,99180.72
2023-02-28T10:51:41.430Z,99191.47
2023-02-28T10:54:20.875Z,99190.88
2023-02-28T10:57:07.939Z,99192.63
2023-02-28T10:59:34.806Z,99192.81
2023-02-28T11:02:01.558Z,99188.44
2023-02-28T11:04:33.226Z,99196.72
2023-02-28T11:07:01.215Z,99197.78
2023-02-28T11:09:33.828Z,99202.59
2023-02-28T11:12:02.123Z,99195.44
2023-02-28T11:14:31.436Z,99195.72
2023-02-28T11:17:15.299Z,99178.69
2023-02-28T11:19:48.768Z,99192.91
2023-02-28T11:22:25.645Z,99184.22
2023-02-28T11:24:56.129Z,99183.38
2023-02-28T11:27:32.850Z,99177.09
2023-02-28T11:30:00.628Z,99169.88
2023-02-28T11:32:30.029Z,99164.34
2023-02-28T11:35:12.125Z,99176.19
2023-02-28T11:37:40.330Z,99174.75
2023-02-28T11:40:18.010Z,99156.78
2023-02-28T11:43:20.317Z,99157.66
2023-02-28T11:46:01.230Z,99164.56
2023-02-28T11:48:42.046Z,99162.16
2023-02-28T11:51:22.465Z,99187.13
2023-02-28T11:54:07.206Z,99185.72
2023-02-28T11:56:45.290Z,99187.47
2023-02-28T11:59:33.289Z,99190.56
2023-02-28T12:02:18.403Z,99190.97
2023-02-28T12:05:00.027Z,99190.16
2023-02-28T12:07:39.511Z,99187.53
2023-02-28T12:10:12.922Z,99180.13
2023-02-28T12:13:13.708Z,99178.75
2023-02-28T12:16:06.952Z,99172.88
2023-02-28T12:18:47.914Z,99173.13
2023-02-28T12:21:26.821Z,99170.72
2023-02-28T12:24:11.412Z,99175.25
2023-02-28T12:26:43.821Z,99179.69
2023-02-28T12:29:31.692Z,99181.41
2023-02-28T12:32:19.647Z,99188.28
2023-02-28T12:34:59.999Z,99190.91
2023-02-28T12:37:33.028Z,99189.03
2023-02-28T12:40:10.646Z,99188.22
2023-02-28T12:42:43.103Z,99194.31
2023-02-28T12:45:25.318Z,99188.94
2023-02-28T12:48:01.390Z,99188.97
2023-02-28T12:50:30.970Z,99181.97
2023-02-28T12:53:10.472Z,99188.22
2023-02-28T12:56:05.173Z,99186.31
2023-02-28T12:58:36.961Z,99188.97
2023-02-28T13:01:18.827Z,99179.28
2023-02-28T13:04:15.351Z,99182.75
2023-02-28T13:06:48.085Z,99201.72
2023-02-28T13:09:19.264Z,99198.06
2023-02-28T13:11:48.664Z,99192.63
2023-02-28T13:14:21.413Z,99199.25
2023-02-28T13:17:09.257Z,99198.41
2023-02-28T13:19:43.932Z,99198.53
2023-02-28T13:22:40.352Z,99197.63
2023-02-28T13:25:25.856Z,99186.50
2023-02-28T13:28:01.841Z,99188.44
2023-02-28T13:30:53.865Z,99188.78
2023-02-28T13:33:34.764Z,99173.25
2023-02-28T13:36:10.654Z,99169.91
2023-02-28T13:38:50.460Z,99171.50
2023-02-28T13:41:29.967Z,99182.88
2023-02-28T13:44:04.316Z,99168.91
2023-02-28T13:46:32.393Z,99179.47
2023-02-28T13:49:23.997Z,99163.78
2023-02-28T13:51:53.301Z,99167.25
2023-02-28T13:54:30.263Z,99155.91
2023-02-28T13:57:23.512Z,99169.06
2023-02-28T14:00:09.335Z,99155.13
2023-02-28T14:03:00.807Z,99170.91
2023-02-28T14:05:30.632Z,99169.16
2023-02-28T14:08:00.402Z,99161.97
2023-02-28T14:10:33.568Z,99171.41
2023-02-28T14:13:02.037Z,99165.31
2023-02-28T14:15:37.884Z,99160.84
2023-02-28T14:18:15.404Z,99168.84
2023-02-28T14:20:44.574Z,99166.25
2023-02-28T14:23:26.633Z,99162.78
2023-02-28T14:26:19.161Z,99150.53
2023-02-28T14:28:51.907Z,99162.81
2023-02-28T14:31:29.046Z,99163.63
2023-02-28T14:34:14.086Z,99157.56
2023-02-28T14:36:43.402Z,99160.22
2023-02-28T14:39:17.592Z,99164.59
2023-02-28T14:41:45.543Z,99161.91
2023-02-28T14:44:24.777Z,99164.47
2023-02-28T14:46:55.041Z,99160.91
2023-02-28T14:49:28.431Z,99166.16
2023-02-28T14:52:15.996Z,99172.31
2023-02-28T14:54:43.204Z,99167.84
2023-02-28T14:57:29.501Z,99165.31
2023-02-28T15:00:21.075Z,99166.25
2023-02-28T15:02:48.163Z,99164.53
2023-02-28T15:05:17.454Z,99172.44
2023-02-28T15:07:46.151Z,99166.34
2023-02-28T15:10:27.062Z,99171.59
2023-02-28T15:12:59.027Z,99153.19
2023-02-28T15:15:40.537Z,99161.00
2023-02-28T15:18:22.946Z,99160.09
2023-02-28T15:20:51.724Z,99164.38
2023-02-28T15:23:21.440Z,99171.44
2023-02-28T15:25:49.205Z,99176.59
2023-02-28T15:28:23.535Z,99179.19
2023-02-28T15:31:00.255Z,99166.06
2023-02-28T15:33:32.613Z,99170.34
2023-02-28T15:36:16.867Z,99173.03
2023-02-28T15:38:44.982Z,99184.41
2023-02-28T15:41:27.782Z,99180.75
2023-02-28T15:44:17.812Z,99182.47
2023-02-28T15:46:55.584Z,99175.38
2023-02-28T15:49:24.150Z,99172.69
2023-02-28T15:51:54.585Z,99181.50
2023-02-28T15:54:25.523Z,99181.34
2023-02-28T15:56:54.878Z,99183.69
2023-02-28T15:59:28.742Z,99191.63
2023-02-28T16:02:24.987Z,99185.69
2023-02-28T16:05:08.499Z,99188.25
2023-02-28T16:07:37.814Z,99188.84
2023-02-28T16:10:05.414Z,99201.81
2023-02-28T16:12:34.658Z,99197.34
2023-02-28T16:15:04.097Z,99192.09
2023-02-28T16:17:34.557Z,99189.44
2023-02-28T16:20:01.883Z,99206.81
2023-02-28T16:22:28.471Z,99200.00
2023-02-28T16:24:55.080Z,99199.72
2023-02-28T16:27:31.256Z,99210.25
2023-02-28T16:29:58.263Z,99203.00
2023-02-28T16:32:25.231Z,99213.66
2023-02-28T16:34:51.944Z,99206.59
2023-02-28T16:37:19.145Z,99215.28
2023-02-28T16:39:46.350Z,99210.06
2023-02-28T16:42:27.871Z,99223.00
2023-02-28T16:44:55.528Z,99218.59
2023-02-28T16:47:22.896Z,99218.56
2023-02-28T16:49:49.614Z,99225.38
2023-02-28T16:52:16.500Z,99235.00
2023-02-28T16:54:43.461Z,99237.63
2023-02-28T16:57:20.967Z,99239.03
2023-02-28T16:59:48.303Z,99239.94
2023-02-28T17:02:17.584Z,99243.13
2023-02-28T17:04:44.434Z,99244.81
2023-02-28T17:07:16.956Z,99247.28
2023-02-28T17:09:46.352Z,99253.69
2023-02-28T17:12:13.672Z,99254.69
2023-02-28T17:14:40.478Z,99266.69
2023-02-28T17:17:08.047Z,99264.78
2023-02-28T17:19:36.929Z,99268.41
2023-02-28T17:22:04.122Z,99267.59
2023-02-28T17:24:31.587Z,99276.28
2023-02-28T17:26:58.989Z,99277.13
2023-02-28T17:29:25.990Z,99277.00
2023-02-28T17:31:52.998Z,99287.53
2023-02-28T17:34:20.641Z,99288.38
2023-02-28T17:36:48.881Z,99294.34
2023-02-28T17:39:20.654Z,99293.47
2023-02-28T17:41:47.517Z,99296.66
2023-02-28T17:44:14.443Z,99296.66
2023-02-28T17:46:42.173Z,99307.00
2023-02-28T17:49:09.729Z,99310.47
2023-02-28T17:51:36.664Z,99315.66
2023-02-28T17:54:03.535Z,99312.78
2023-02-28T17:56:30.436Z,99306.91
2023-02-28T17:58:57.761Z,99313.56
2023-02-28T18:01:27.889Z,99318.06
2023-02-28T18:03:55.749Z,99319.84
2023-02-28T18:06:28.231Z,99318.59
2023-02-28T18:08:55.427Z,99320.56
2023-02-28T18:11:24.275Z,99324.50
2023-02-28T18:13:56.713Z,99321.31
2023-02-28T18:16:23.488Z,99317.00
2023-02-28T18:18:50.438Z,99322.16
2023-02-28T18:21:17.617Z,99324.56
2023-02-28T18:23:48.398Z,99316.03
2023-02-28T18:26:16.597Z,99325.38
2023-02-28T18:28:44.581Z,99312.38
2023-02-28T18:31:16.845Z,99311.63
2023-02-28T18:33:51.259Z,99309.00
2023-02-28T18:36:20.684Z,99318.59
2023-02-28T18:38:50.304Z,99309.91
2023-02-28T18:41:21.504Z,99313.25
2023-02-28T18:43:49.469Z,99318.38
2023-02-28T18:46:19.284Z,99319.22
2023-02-28T18:48:46.497Z,99314.94
2023-02-28T18:51:21.978Z,99321.81
2023-02-28T18:53:48.772Z,99318.16
2023-02-28T18:56:18.276Z,99317.22
2023-02-28T18:58:45.587Z,99318.00
2023-02-28T19:01:24.637Z,99322.41
2023-02-28T19:03:51.632Z,99313.53
2023-02-28T19:06:19.241Z,99329.16
2023-02-28T19:08:45.984Z,99321.97
2023-02-28T19:11:15.726Z,99330.75
2023-02-28T19:13:43.264Z,99332.41
2023-02-28T19:16:12.640Z,99328.03
2023-02-28T19:18:40.132Z,99329.69
2023-02-28T19:21:08.450Z,99335.56
2023-02-28T19:23:35.171Z,99334.56
2023-02-28T19:26:06.255Z,99336.19
2023-02-28T19:28:33.037Z,99332.63
2023-02-28T19:30:59.741Z,99332.47
2023-02-28T19:33:26.509Z,99335.84
2023-02-28T19:35:53.477Z,99334.84
2023-02-28T19:38:20.267Z,99345.31
2023-02-28T19:40:46.955Z,99338.19
2023-02-28T19:43:13.927Z,99342.47
2023-02-28T19:45:40.707Z,99331.00
2023-02-28T19:48:09.779Z,99338.69
2023-02-28T19:50:37.614Z,99339.50
2023-02-28T19:53:04.433Z,99342.97
2023-02-28T19:55:31.639Z,99336.13
2023-02-28T19:57:58.387Z,99339.59
2023-02-28T20:00:25.034Z,99342.16
2023-02-28T20:02:51.798Z,99348.13
2023-02-28T20:05:18.636Z,99343.66
2023-02-28T20:07:45.312Z,99337.56
2023-02-28T20:10:12.498Z,99340.34
2023-02-28T20:12:39.299Z,99338.63
2023-02-28T20:15:06.527Z,99341.06
2023-02-28T20:17:33.237Z,99337.69
2023-02-28T20:19:59.929Z,99338.47
2023-02-28T20:22:26.694Z,99336.03
2023-02-28T20:24:53.961Z,99337.69
2023-02-28T20:27:20.639Z,99336.03
2023-02-28T20:29:47.496Z,99333.63
2023-02-28T20:32:14.488Z,99334.31
2023-02-28T20:34:41.473Z,99341.31
2023-02-28T20:37:08.274Z,99328.25
2023-02-28T20:39:34.991Z,99336.84
2023-02-28T20:42:01.642Z,99335.16
2023-02-28T20:44:28.322Z,99334.13
2023-02-28T20:46:54.971Z,99340.19
2023-02-28T20:49:22.926Z,99337.75
2023-02-28T20:51:49.649Z,99329.84
2023-02-28T20:54:16.414Z,99330.63
2023-02-28T20:56:43.080Z,99328.97
2023-02-28T20:59:12.974Z,99326.09
2023-02-28T21:01:42.625Z,99322.59
2023-02-28T21:04:09.351Z,99327.88
2023-02-28T21:06:38.788Z,99328.84
2023-02-28T21:09:07.678Z,99328.09
2023-02-28T21:11:36.885Z,99329.66
2023-02-28T21:14:06.671Z,99332.19
2023-02-28T21:16:36.564Z,99323.50
2023-02-28T21:19:04.643Z,99321.75
2023-02-28T21:21:42.868Z,99322.53
2023-02-28T21:24:11.661Z,99320.69
2023-02-28T21:26:40.564Z,99319.66
2023-02-28T21:29:07.704Z,99314.44
2023-02-28T21:31:35.442Z,99323.44
2023-02-28T21:34:04.874Z,99319.03
2023-02-28T21:36:37.202Z,99317.25
2023-02-28T21:39:08.974Z,99323.31
2023-02-28T21:41:35.921Z,99313.66
2023-02-28T21:44:02.782Z,99317.81
2023-02-28T21:46:31.021Z,99323.91
2023-02-28T21:48:58.655Z,99324.69
2023-02-28T21:51:33.786Z,99316.06
2023-02-28T21:54:01.106Z,99310.75
2023-02-28T21:56:30.290Z,99312.53
2023-02-28T21:59:03.443Z,99313.47
2023-02-28T22:01:32.211Z,99308.06
2023-02-28T22:03:59.566Z,99305.25
2023-02-28T22:06:29.881Z,99312.41
2023-02-28T22:08:59.254Z,99303.66
2023-02-28T22:11:26.431Z,99299.34
2023-02-28T22:13:57.790Z,99306.13
2023-02-28T22:16:26.656Z,99317.53
2023-02-28T22:18:54.996Z,99306.13
2023-02-28T22:21:23.196Z,99306.13
2023-02-28T22:23:50.458Z,99305.16
2023-02-28T22:26:20.290Z,99311.22
2023-02-28T22:28:47.374Z,99324.25
2023-02-28T22:31:21.499Z,99318.22
2023-02-28T22:33:49.521Z,99311.97
2023-02-28T22:36:17.903Z,99316.44
2023-02-28T22:38:46.029Z,99302.63
2023-02-28T22:41:12.883Z,99306.06
2023-02-28T22:43:40.643Z,99306.84
2023-02-28T22:46:09.829Z,99313.97
2023-02-28T22:48:37.013Z,99306.91
2023-02-28T22:51:12.642Z,99307.78
2023-02-28T22:53:39.765Z,99305.16
2023-02-28T22:56:08.139Z,99312.03
2023-02-28T22:58:35.017Z,99306.72
2023-02-28T23:01:22.326Z,99306.72
2023-02-28T23:03:49.884Z,99309.50
2023-02-28T23:06:19.930Z,99307.94
2023-02-28T23:08:46.634Z,99303.47
2023-02-28T23:11:29.519Z,99301.59
2023-02-28T23:13:59.024Z,99301.53
2023-02-28T23:16:31.167Z,99303.13
2023-02-28T23:19:01.143Z,99306.47
2023-02-28T23:21:28.646Z,99305.50
2023-02-28T23:23:55.647Z,99310.66
2023-02-28T23:26:22.892Z,99310.28
2023-02-28T23:28:49.560Z,99314.84
2023-02-28T23:31:16.367Z,99318.34
2023-02-28T23:33:43.140Z,99321.00
2023-02-28T23:36:15.200Z,99318.31
2023-02-28T23:38:45.531Z,99318.31
2023-02-28T23:41:13.652Z,99327.72
2023-02-28T23:43:40.718Z,99327.72
2023-02-28T23:46:08.454Z,99327.56
2023-02-28T23:48:35.457Z,99328.47
2023-02-28T23:51:08.298Z,99327.72
2023-02-28T23:53:36.196Z,99321.59
2023-02-28T23:56:03.488Z,99320.47
2023-02-28T23:58:30.693Z,99323.97
